Search for airport 
image banner adimage banner adimage banner ad
image banner ad

61PN - A G A Farms

Located in Perkasie, United States

ICAO - 61PN, IATA -

Data provided by Airmate  

General information

Coordinates: N40°25'32" W75°13'57"
Elevation is 450 feet MSL.
Magnetic variation is -12° East
View others Airports in Pennsylvania

Operational data

Special qualification required
Current time UTC:
Current local time:
Weather at : KCKZ - Pennridge ( 6 km )
METAR: KCKZ 091335Z AUTO 30003KT 10SM CLR 10/05 A3010 RMK AO2
View NOTAMs / SUP AIP / TFR affecting this airport [VIEW]
Communications frequencies: [VIEW]

Runways:

RWY identifierQFULength (ft)Width (ft)SurfaceLDA (ft)
05280055ASPH
23280055ASPH

Airport contact information

Address: Perkasie United States

Satellite view of 61PN